sensor_id;sensor_type;location;lat;lon;timestamp;pressure;altitude;pressure_sealevel;temperature
17142;BMP180;32805;53.556;9.944;2023-04-03T00:00:03;103155.00;;;2.20
17142;BMP180;32805;53.556;9.944;2023-04-03T00:02:32;103147.00;;;2.20
17142;BMP180;32805;53.556;9.944;2023-04-03T00:05:00;103153.00;;;2.20
17142;BMP180;32805;53.556;9.944;2023-04-03T00:07:28;103155.00;;;2.20
17142;BMP180;32805;53.556;9.944;2023-04-03T00:09:56;103151.00;;;2.20
17142;BMP180;32805;53.556;9.944;2023-04-03T00:12:23;103158.00;;;2.20
17142;BMP180;32805;53.556;9.944;2023-04-03T00:14:51;103159.00;;;2.20
17142;BMP180;32805;53.556;9.944;2023-04-03T00:17:20;103168.00;;;2.20
17142;BMP180;32805;53.556;9.944;2023-04-03T00:19:47;103174.00;;;2.20
17142;BMP180;32805;53.556;9.944;2023-04-03T00:22:15;103164.00;;;2.20
17142;BMP180;32805;53.556;9.944;2023-04-03T00:24:43;103159.00;;;2.20
17142;BMP180;32805;53.556;9.944;2023-04-03T00:27:10;103162.00;;;2.20
17142;BMP180;32805;53.556;9.944;2023-04-03T00:29:38;103154.00;;;2.20
17142;BMP180;32805;53.556;9.944;2023-04-03T00:32:06;103163.00;;;2.20
17142;BMP180;32805;53.556;9.944;2023-04-03T00:34:35;103166.00;;;2.20
17142;BMP180;32805;53.556;9.944;2023-04-03T00:37:03;103165.00;;;2.20
17142;BMP180;32805;53.556;9.944;2023-04-03T00:39:31;103175.00;;;2.20
17142;BMP180;32805;53.556;9.944;2023-04-03T00:41:59;103174.00;;;2.20
17142;BMP180;32805;53.556;9.944;2023-04-03T00:47:28;103168.00;;;2.20
17142;BMP180;32805;53.556;9.944;2023-04-03T00:49:58;103163.00;;;2.20
17142;BMP180;32805;53.556;9.944;2023-04-03T00:52:28;103167.00;;;2.20
17142;BMP180;32805;53.556;9.944;2023-04-03T00:55:00;103174.00;;;2.20
17142;BMP180;32805;53.556;9.944;2023-04-03T00:57:30;103172.00;;;2.20
17142;BMP180;32805;53.556;9.944;2023-04-03T01:00:02;103168.00;;;2.20
17142;BMP180;32805;53.556;9.944;2023-04-03T01:02:30;103169.00;;;2.10
17142;BMP180;32805;53.556;9.944;2023-04-03T01:04:59;103172.00;;;2.10
17142;BMP180;32805;53.556;9.944;2023-04-03T01:07:29;103177.00;;;2.10
17142;BMP180;32805;53.556;9.944;2023-04-03T01:09:59;103180.00;;;2.10
17142;BMP180;32805;53.556;9.944;2023-04-03T01:12:30;103175.00;;;2.10
17142;BMP180;32805;53.556;9.944;2023-04-03T01:15:00;103169.00;;;2.10
17142;BMP180;32805;53.556;9.944;2023-04-03T01:17:30;103178.00;;;2.10
17142;BMP180;32805;53.556;9.944;2023-04-03T01:20:29;103172.00;;;2.10
17142;BMP180;32805;53.556;9.944;2023-04-03T01:23:10;103175.00;;;2.10
17142;BMP180;32805;53.556;9.944;2023-04-03T01:25:42;103170.00;;;2.10
17142;BMP180;32805;53.556;9.944;2023-04-03T01:28:12;103171.00;;;2.10
17142;BMP180;32805;53.556;9.944;2023-04-03T01:30:45;103175.00;;;2.10
17142;BMP180;32805;53.556;9.944;2023-04-03T01:33:16;103167.00;;;2.10
17142;BMP180;32805;53.556;9.944;2023-04-03T01:35:46;103165.00;;;2.10
17142;BMP180;32805;53.556;9.944;2023-04-03T01:38:14;103182.00;;;2.10
17142;BMP180;32805;53.556;9.944;2023-04-03T01:40:42;103165.00;;;2.10
17142;BMP180;32805;53.556;9.944;2023-04-03T01:43:10;103174.00;;;2.10
17142;BMP180;32805;53.556;9.944;2023-04-03T01:45:38;103175.00;;;2.10
17142;BMP180;32805;53.556;9.944;2023-04-03T01:48:06;103169.00;;;2.10
17142;BMP180;32805;53.556;9.944;2023-04-03T01:50:35;103172.00;;;2.10
17142;BMP180;32805;53.556;9.944;2023-04-03T01:53:04;103174.00;;;2.10
17142;BMP180;32805;53.556;9.944;2023-04-03T01:55:32;103183.00;;;2.10
17142;BMP180;32805;53.556;9.944;2023-04-03T01:58:00;103173.00;;;2.00
17142;BMP180;32805;53.556;9.944;2023-04-03T02:00:27;103177.00;;;2.10
17142;BMP180;32805;53.556;9.944;2023-04-03T02:02:55;103182.00;;;2.10
17142;BMP180;32805;53.556;9.944;2023-04-03T02:05:24;103179.00;;;2.00
17142;BMP180;32805;53.556;9.944;2023-04-03T02:07:53;103184.00;;;2.00
17142;BMP180;32805;53.556;9.944;2023-04-03T02:10:21;103177.00;;;2.00
17142;BMP180;32805;53.556;9.944;2023-04-03T02:12:49;103164.00;;;2.00
17142;BMP180;32805;53.556;9.944;2023-04-03T02:15:18;103177.00;;;2.00
17142;BMP180;32805;53.556;9.944;2023-04-03T02:17:46;103176.00;;;2.00
17142;BMP180;32805;53.556;9.944;2023-04-03T02:20:13;103169.00;;;2.00
17142;BMP180;32805;53.556;9.944;2023-04-03T02:22:41;103182.00;;;1.90
17142;BMP180;32805;53.556;9.944;2023-04-03T02:25:10;103173.00;;;1.90
17142;BMP180;32805;53.556;9.944;2023-04-03T02:27:40;103177.00;;;1.90
17142;BMP180;32805;53.556;9.944;2023-04-03T02:30:08;103182.00;;;1.90
17142;BMP180;32805;53.556;9.944;2023-04-03T02:32:37;103187.00;;;1.80
17142;BMP180;32805;53.556;9.944;2023-04-03T02:35:05;103191.00;;;1.90
17142;BMP180;32805;53.556;9.944;2023-04-03T02:37:33;103183.00;;;1.90
17142;BMP180;32805;53.556;9.944;2023-04-03T02:40:01;103190.00;;;1.90
17142;BMP180;32805;53.556;9.944;2023-04-03T02:42:30;103189.00;;;1.80
17142;BMP180;32805;53.556;9.944;2023-04-03T02:44:58;103183.00;;;1.80
17142;BMP180;32805;53.556;9.944;2023-04-03T02:47:27;103186.00;;;1.80
17142;BMP180;32805;53.556;9.944;2023-04-03T02:49:55;103199.00;;;1.80
17142;BMP180;32805;53.556;9.944;2023-04-03T02:52:22;103200.00;;;1.80
17142;BMP180;32805;53.556;9.944;2023-04-03T02:54:53;103209.00;;;1.70
17142;BMP180;32805;53.556;9.944;2023-04-03T02:57:20;103196.00;;;1.70
17142;BMP180;32805;53.556;9.944;2023-04-03T02:59:50;103195.00;;;1.70
17142;BMP180;32805;53.556;9.944;2023-04-03T03:02:18;103200.00;;;1.70
17142;BMP180;32805;53.556;9.944;2023-04-03T03:04:45;103198.00;;;1.70
17142;BMP180;32805;53.556;9.944;2023-04-03T03:07:13;103197.00;;;1.70
17142;BMP180;32805;53.556;9.944;2023-04-03T03:09:41;103207.00;;;1.60
17142;BMP180;32805;53.556;9.944;2023-04-03T03:12:09;103206.00;;;1.60
17142;BMP180;32805;53.556;9.944;2023-04-03T03:14:36;103194.00;;;1.60
17142;BMP180;32805;53.556;9.944;2023-04-03T03:17:05;103202.00;;;1.60
17142;BMP180;32805;53.556;9.944;2023-04-03T03:19:33;103197.00;;;1.60
17142;BMP180;32805;53.556;9.944;2023-04-03T03:22:01;103190.00;;;1.60
17142;BMP180;32805;53.556;9.944;2023-04-03T03:24:28;103192.00;;;1.50
17142;BMP180;32805;53.556;9.944;2023-04-03T03:26:56;103194.00;;;1.50
17142;BMP180;32805;53.556;9.944;2023-04-03T03:29:24;103195.00;;;1.50
17142;BMP180;32805;53.556;9.944;2023-04-03T03:31:52;103196.00;;;1.50
17142;BMP180;32805;53.556;9.944;2023-04-03T03:34:21;103194.00;;;1.50
17142;BMP180;32805;53.556;9.944;2023-04-03T03:36:49;103189.00;;;1.50
17142;BMP180;32805;53.556;9.944;2023-04-03T03:39:17;103200.00;;;1.50
17142;BMP180;32805;53.556;9.944;2023-04-03T03:41:44;103203.00;;;1.50
17142;BMP180;32805;53.556;9.944;2023-04-03T03:44:13;103203.00;;;1.40
17142;BMP180;32805;53.556;9.944;2023-04-03T03:46:41;103207.00;;;1.40
17142;BMP180;32805;53.556;9.944;2023-04-03T03:49:09;103201.00;;;1.40
17142;BMP180;32805;53.556;9.944;2023-04-03T03:51:39;103205.00;;;1.40
17142;BMP180;32805;53.556;9.944;2023-04-03T03:54:07;103196.00;;;1.40
17142;BMP180;32805;53.556;9.944;2023-04-03T03:56:35;103202.00;;;1.40
17142;BMP180;32805;53.556;9.944;2023-04-03T03:59:03;103211.00;;;1.30
17142;BMP180;32805;53.556;9.944;2023-04-03T04:01:32;103212.00;;;1.30
17142;BMP180;32805;53.556;9.944;2023-04-03T04:04:01;103207.00;;;1.30
17142;BMP180;32805;53.556;9.944;2023-04-03T04:06:30;103195.00;;;1.30
17142;BMP180;32805;53.556;9.944;2023-04-03T04:09:03;103209.00;;;1.30
17142;BMP180;32805;53.556;9.944;2023-04-03T04:11:31;103206.00;;;1.30
17142;BMP180;32805;53.556;9.944;2023-04-03T04:13:59;103201.00;;;1.30
17142;BMP180;32805;53.556;9.944;2023-04-03T04:16:29;103200.00;;;1.20
17142;BMP180;32805;53.556;9.944;2023-04-03T04:19:02;103199.00;;;1.20
17142;BMP180;32805;53.556;9.944;2023-04-03T04:21:32;103204.00;;;1.20
17142;BMP180;32805;53.556;9.944;2023-04-03T04:24:00;103208.00;;;1.20
17142;BMP180;32805;53.556;9.944;2023-04-03T04:26:29;103215.00;;;1.20
17142;BMP180;32805;53.556;9.944;2023-04-03T04:28:57;103213.00;;;1.10
17142;BMP180;32805;53.556;9.944;2023-04-03T04:31:25;103213.00;;;1.10
17142;BMP180;32805;53.556;9.944;2023-04-03T04:33:53;103217.00;;;1.10
17142;BMP180;32805;53.556;9.944;2023-04-03T04:36:21;103204.00;;;1.20
17142;BMP180;32805;53.556;9.944;2023-04-03T04:38:49;103218.00;;;1.20
17142;BMP180;32805;53.556;9.944;2023-04-03T04:41:21;103220.00;;;1.10
17142;BMP180;32805;53.556;9.944;2023-04-03T04:43:52;103219.00;;;1.10
17142;BMP180;32805;53.556;9.944;2023-04-03T04:46:20;103234.00;;;1.10
17142;BMP180;32805;53.556;9.944;2023-04-03T04:48:52;103232.00;;;1.20
17142;BMP180;32805;53.556;9.944;2023-04-03T04:51:21;103235.00;;;1.20
17142;BMP180;32805;53.556;9.944;2023-04-03T04:53:48;103235.00;;;1.10
17142;BMP180;32805;53.556;9.944;2023-04-03T04:56:18;103240.00;;;1.10
17142;BMP180;32805;53.556;9.944;2023-04-03T04:58:46;103242.00;;;1.10
17142;BMP180;32805;53.556;9.944;2023-04-03T05:01:18;103239.00;;;1.20
17142;BMP180;32805;53.556;9.944;2023-04-03T05:03:54;103241.00;;;1.10
17142;BMP180;32805;53.556;9.944;2023-04-03T05:06:23;103252.00;;;1.20
17142;BMP180;32805;53.556;9.944;2023-04-03T05:08:52;103260.00;;;1.20
17142;BMP180;32805;53.556;9.944;2023-04-03T05:11:20;103257.00;;;1.20
17142;BMP180;32805;53.556;9.944;2023-04-03T05:13:51;103248.00;;;1.20
17142;BMP180;32805;53.556;9.944;2023-04-03T05:16:21;103251.00;;;1.30
17142;BMP180;32805;53.556;9.944;2023-04-03T05:18:49;103237.00;;;1.30
17142;BMP180;32805;53.556;9.944;2023-04-03T05:21:20;103256.00;;;1.30
17142;BMP180;32805;53.556;9.944;2023-04-03T05:23:50;103252.00;;;1.30
17142;BMP180;32805;53.556;9.944;2023-04-03T05:26:19;103261.00;;;1.40
17142;BMP180;32805;53.556;9.944;2023-04-03T05:28:49;103253.00;;;1.40
17142;BMP180;32805;53.556;9.944;2023-04-03T05:31:18;103258.00;;;1.40
17142;BMP180;32805;53.556;9.944;2023-04-03T05:33:49;103253.00;;;1.40
17142;BMP180;32805;53.556;9.944;2023-04-03T05:36:17;103255.00;;;1.40
17142;BMP180;32805;53.556;9.944;2023-04-03T05:38:49;103255.00;;;1.50
17142;BMP180;32805;53.556;9.944;2023-04-03T05:41:18;103264.00;;;1.50
17142;BMP180;32805;53.556;9.944;2023-04-03T05:43:47;103259.00;;;1.60
17142;BMP180;32805;53.556;9.944;2023-04-03T05:46:17;103264.00;;;1.60
17142;BMP180;32805;53.556;9.944;2023-04-03T05:48:51;103271.00;;;1.60
17142;BMP180;32805;53.556;9.944;2023-04-03T05:51:33;103260.00;;;1.70
17142;BMP180;32805;53.556;9.944;2023-04-03T05:54:12;103282.00;;;1.70
17142;BMP180;32805;53.556;9.944;2023-04-03T05:56:41;103274.00;;;1.80
17142;BMP180;32805;53.556;9.944;2023-04-03T05:59:09;103272.00;;;1.80
17142;BMP180;32805;53.556;9.944;2023-04-03T06:01:37;103271.00;;;1.80
17142;BMP180;32805;53.556;9.944;2023-04-03T06:04:07;103264.00;;;1.90
17142;BMP180;32805;53.556;9.944;2023-04-03T06:06:44;103267.00;;;1.90
17142;BMP180;32805;53.556;9.944;2023-04-03T06:09:12;103260.00;;;2.00
17142;BMP180;32805;53.556;9.944;2023-04-03T06:11:39;103267.00;;;2.00
17142;BMP180;32805;53.556;9.944;2023-04-03T06:14:08;103274.00;;;2.00
17142;BMP180;32805;53.556;9.944;2023-04-03T06:16:36;103271.00;;;2.10
17142;BMP180;32805;53.556;9.944;2023-04-03T06:19:08;103279.00;;;2.10
17142;BMP180;32805;53.556;9.944;2023-04-03T06:21:40;103287.00;;;2.20
17142;BMP180;32805;53.556;9.944;2023-04-03T06:24:09;103287.00;;;2.30
17142;BMP180;32805;53.556;9.944;2023-04-03T06:26:37;103271.00;;;2.30
17142;BMP180;32805;53.556;9.944;2023-04-03T06:29:05;103273.00;;;2.30
17142;BMP180;32805;53.556;9.944;2023-04-03T06:31:33;103261.00;;;2.40
17142;BMP180;32805;53.556;9.944;2023-04-03T06:34:03;103273.00;;;2.40
17142;BMP180;32805;53.556;9.944;2023-04-03T06:36:35;103279.00;;;2.40
17142;BMP180;32805;53.556;9.944;2023-04-03T06:39:03;103281.00;;;2.50
17142;BMP180;32805;53.556;9.944;2023-04-03T06:41:31;103286.00;;;2.50
17142;BMP180;32805;53.556;9.944;2023-04-03T06:44:00;103291.00;;;2.60
17142;BMP180;32805;53.556;9.944;2023-04-03T06:46:29;103290.00;;;2.70
17142;BMP180;32805;53.556;9.944;2023-04-03T06:48:57;103284.00;;;2.70
17142;BMP180;32805;53.556;9.944;2023-04-03T06:51:26;103289.00;;;2.80
17142;BMP180;32805;53.556;9.944;2023-04-03T06:53:58;103286.00;;;2.90
17142;BMP180;32805;53.556;9.944;2023-04-03T06:56:27;103293.00;;;2.90
17142;BMP180;32805;53.556;9.944;2023-04-03T06:58:57;103294.00;;;3.00
17142;BMP180;32805;53.556;9.944;2023-04-03T07:01:29;103293.00;;;3.00
17142;BMP180;32805;53.556;9.944;2023-04-03T07:03:57;103291.00;;;3.10
17142;BMP180;32805;53.556;9.944;2023-04-03T07:06:25;103290.00;;;3.20
17142;BMP180;32805;53.556;9.944;2023-04-03T07:08:54;103290.00;;;3.20
17142;BMP180;32805;53.556;9.944;2023-04-03T07:11:24;103287.00;;;3.30
17142;BMP180;32805;53.556;9.944;2023-04-03T07:13:52;103290.00;;;3.40
17142;BMP180;32805;53.556;9.944;2023-04-03T07:16:20;103298.00;;;3.40
17142;BMP180;32805;53.556;9.944;2023-04-03T07:18:48;103305.00;;;3.50
17142;BMP180;32805;53.556;9.944;2023-04-03T07:21:16;103298.00;;;3.60
17142;BMP180;32805;53.556;9.944;2023-04-03T07:23:43;103292.00;;;3.70
17142;BMP180;32805;53.556;9.944;2023-04-03T07:26:11;103288.00;;;3.70
17142;BMP180;32805;53.556;9.944;2023-04-03T07:28:40;103293.00;;;3.80
17142;BMP180;32805;53.556;9.944;2023-04-03T07:31:11;103289.00;;;3.80
17142;BMP180;32805;53.556;9.944;2023-04-03T07:33:41;103306.00;;;3.90
17142;BMP180;32805;53.556;9.944;2023-04-03T07:36:09;103292.00;;;4.00
17142;BMP180;32805;53.556;9.944;2023-04-03T07:38:37;103290.00;;;4.00
17142;BMP180;32805;53.556;9.944;2023-04-03T07:41:05;103294.00;;;4.10
17142;BMP180;32805;53.556;9.944;2023-04-03T07:43:33;103285.00;;;4.20
17142;BMP180;32805;53.556;9.944;2023-04-03T07:46:05;103299.00;;;4.20
17142;BMP180;32805;53.556;9.944;2023-04-03T07:48:32;103290.00;;;4.30
17142;BMP180;32805;53.556;9.944;2023-04-03T07:51:02;103288.00;;;4.30
17142;BMP180;32805;53.556;9.944;2023-04-03T07:53:30;103294.00;;;4.30
17142;BMP180;32805;53.556;9.944;2023-04-03T07:55:59;103289.00;;;4.40
17142;BMP180;32805;53.556;9.944;2023-04-03T07:58:26;103282.00;;;4.40
17142;BMP180;32805;53.556;9.944;2023-04-03T08:00:54;103288.00;;;4.50
17142;BMP180;32805;53.556;9.944;2023-04-03T08:03:23;103289.00;;;4.60
17142;BMP180;32805;53.556;9.944;2023-04-03T08:05:52;103296.00;;;4.60
17142;BMP180;32805;53.556;9.944;2023-04-03T08:08:21;103289.00;;;4.60
17142;BMP180;32805;53.556;9.944;2023-04-03T08:10:50;103290.00;;;4.60
17142;BMP180;32805;53.556;9.944;2023-04-03T08:13:19;103289.00;;;4.70
17142;BMP180;32805;53.556;9.944;2023-04-03T08:15:47;103288.00;;;4.80
17142;BMP180;32805;53.556;9.944;2023-04-03T08:18:15;103291.00;;;4.80
17142;BMP180;32805;53.556;9.944;2023-04-03T08:20:44;103296.00;;;4.90
17142;BMP180;32805;53.556;9.944;2023-04-03T08:23:12;103282.00;;;4.90
17142;BMP180;32805;53.556;9.944;2023-04-03T08:25:44;103293.00;;;4.90
17142;BMP180;32805;53.556;9.944;2023-04-03T08:28:12;103293.00;;;4.90
17142;BMP180;32805;53.556;9.944;2023-04-03T08:30:40;103286.00;;;5.00
17142;BMP180;32805;53.556;9.944;2023-04-03T08:33:09;103289.00;;;5.10
17142;BMP180;32805;53.556;9.944;2023-04-03T08:35:40;103284.00;;;5.10
17142;BMP180;32805;53.556;9.944;2023-04-03T08:38:10;103280.00;;;5.20
17142;BMP180;32805;53.556;9.944;2023-04-03T08:40:45;103282.00;;;5.20
17142;BMP180;32805;53.556;9.944;2023-04-03T08:43:26;103285.00;;;5.20
17142;BMP180;32805;53.556;9.944;2023-04-03T08:46:01;103278.00;;;5.20
17142;BMP180;32805;53.556;9.944;2023-04-03T08:48:33;103277.00;;;5.30
17142;BMP180;32805;53.556;9.944;2023-04-03T08:51:06;103282.00;;;5.40
17142;BMP180;32805;53.556;9.944;2023-04-03T08:53:42;103282.00;;;5.40
17142;BMP180;32805;53.556;9.944;2023-04-03T08:56:12;103275.00;;;5.50
17142;BMP180;32805;53.556;9.944;2023-04-03T08:58:45;103270.00;;;5.50
17142;BMP180;32805;53.556;9.944;2023-04-03T09:01:19;103274.00;;;5.60
17142;BMP180;32805;53.556;9.944;2023-04-03T09:03:47;103268.00;;;5.60
17142;BMP180;32805;53.556;9.944;2023-04-03T09:06:20;103273.00;;;5.60
17142;BMP180;32805;53.556;9.944;2023-04-03T09:09:04;103261.00;;;5.60
17142;BMP180;32805;53.556;9.944;2023-04-03T09:11:44;103260.00;;;5.60
17142;BMP180;32805;53.556;9.944;2023-04-03T09:14:18;103273.00;;;5.70
17142;BMP180;32805;53.556;9.944;2023-04-03T09:16:54;103271.00;;;5.80
17142;BMP180;32805;53.556;9.944;2023-04-03T09:19:33;103270.00;;;5.90
17142;BMP180;32805;53.556;9.944;2023-04-03T09:22:13;103256.00;;;5.90
17142;BMP180;32805;53.556;9.944;2023-04-03T09:24:45;103248.00;;;6.00
17142;BMP180;32805;53.556;9.944;2023-04-03T09:27:14;103255.00;;;6.20
17142;BMP180;32805;53.556;9.944;2023-04-03T09:29:43;103258.00;;;6.40
17142;BMP180;32805;53.556;9.944;2023-04-03T09:32:20;103248.00;;;6.40
17142;BMP180;32805;53.556;9.944;2023-04-03T09:34:50;103247.00;;;6.50
17142;BMP180;32805;53.556;9.944;2023-04-03T09:37:38;103255.00;;;6.40
17142;BMP180;32805;53.556;9.944;2023-04-03T09:40:32;103246.00;;;6.40
17142;BMP180;32805;53.556;9.944;2023-04-03T09:43:19;103252.00;;;6.50
17142;BMP180;32805;53.556;9.944;2023-04-03T09:45:49;103262.00;;;6.50
17142;BMP180;32805;53.556;9.944;2023-04-03T09:48:20;103248.00;;;6.60
17142;BMP180;32805;53.556;9.944;2023-04-03T09:50:59;103242.00;;;6.70
17142;BMP180;32805;53.556;9.944;2023-04-03T09:53:34;103241.00;;;6.90
17142;BMP180;32805;53.556;9.944;2023-04-03T09:56:19;103231.00;;;7.10
17142;BMP180;32805;53.556;9.944;2023-04-03T09:58:49;103231.00;;;7.30
17142;BMP180;32805;53.556;9.944;2023-04-03T10:01:23;103231.00;;;7.30
17142;BMP180;32805;53.556;9.944;2023-04-03T10:04:05;103225.00;;;7.50
17142;BMP180;32805;53.556;9.944;2023-04-03T10:06:38;103221.00;;;7.50
17142;BMP180;32805;53.556;9.944;2023-04-03T10:09:19;103220.00;;;7.50
17142;BMP180;32805;53.556;9.944;2023-04-03T10:12:00;103217.00;;;7.50
17142;BMP180;32805;53.556;9.944;2023-04-03T10:14:32;103215.00;;;7.50
17142;BMP180;32805;53.556;9.944;2023-04-03T10:17:05;103214.00;;;7.50
17142;BMP180;32805;53.556;9.944;2023-04-03T10:19:41;103216.00;;;7.40
17142;BMP180;32805;53.556;9.944;2023-04-03T10:22:19;103215.00;;;7.20
17142;BMP180;32805;53.556;9.944;2023-04-03T10:24:52;103214.00;;;7.10
17142;BMP180;32805;53.556;9.944;2023-04-03T10:27:30;103211.00;;;7.20
17142;BMP180;32805;53.556;9.944;2023-04-03T10:30:04;103214.00;;;7.30
17142;BMP180;32805;53.556;9.944;2023-04-03T10:32:46;103208.00;;;7.40
17142;BMP180;32805;53.556;9.944;2023-04-03T10:35:28;103210.00;;;7.30
17142;BMP180;32805;53.556;9.944;2023-04-03T10:38:04;103202.00;;;7.40
17142;BMP180;32805;53.556;9.944;2023-04-03T10:40:39;103200.00;;;7.40
17142;BMP180;32805;53.556;9.944;2023-04-03T10:43:18;103195.00;;;7.50
17142;BMP180;32805;53.556;9.944;2023-04-03T10:46:00;103190.00;;;7.60
17142;BMP180;32805;53.556;9.944;2023-04-03T10:48:38;103191.00;;;7.60
17142;BMP180;32805;53.556;9.944;2023-04-03T10:51:16;103184.00;;;7.70
17142;BMP180;32805;53.556;9.944;2023-04-03T10:53:53;103187.00;;;7.60
17142;BMP180;32805;53.556;9.944;2023-04-03T10:56:31;103200.00;;;7.60
17142;BMP180;32805;53.556;9.944;2023-04-03T10:59:15;103183.00;;;7.50
17142;BMP180;32805;53.556;9.944;2023-04-03T11:01:46;103195.00;;;7.40
17142;BMP180;32805;53.556;9.944;2023-04-03T11:04:17;103172.00;;;7.40
17142;BMP180;32805;53.556;9.944;2023-04-03T11:06:48;103174.00;;;7.50
17142;BMP180;32805;53.556;9.944;2023-04-03T11:09:22;103153.00;;;7.60
17142;BMP180;32805;53.556;9.944;2023-04-03T11:11:55;103169.00;;;7.70
17142;BMP180;32805;53.556;9.944;2023-04-03T11:14:28;103165.00;;;7.80
17142;BMP180;32805;53.556;9.944;2023-04-03T11:17:04;103154.00;;;7.80
17142;BMP180;32805;53.556;9.944;2023-04-03T11:19:38;103161.00;;;7.90
17142;BMP180;32805;53.556;9.944;2023-04-03T11:22:10;103155.00;;;8.00
17142;BMP180;32805;53.556;9.944;2023-04-03T11:24:43;103143.00;;;8.20
17142;BMP180;32805;53.556;9.944;2023-04-03T11:27:15;103151.00;;;8.30
17142;BMP180;32805;53.556;9.944;2023-04-03T11:29:46;103151.00;;;8.30
17142;BMP180;32805;53.556;9.944;2023-04-03T11:32:29;103154.00;;;8.40
17142;BMP180;32805;53.556;9.944;2023-04-03T11:35:04;103147.00;;;8.50
17142;BMP180;32805;53.556;9.944;2023-04-03T11:37:36;103152.00;;;8.60
17142;BMP180;32805;53.556;9.944;2023-04-03T11:40:08;103141.00;;;8.70
17142;BMP180;32805;53.556;9.944;2023-04-03T11:42:47;103140.00;;;8.40
17142;BMP180;32805;53.556;9.944;2023-04-03T11:45:34;103140.00;;;8.40
17142;BMP180;32805;53.556;9.944;2023-04-03T11:48:06;103138.00;;;8.40
17142;BMP180;32805;53.556;9.944;2023-04-03T11:50:50;103138.00;;;8.50
17142;BMP180;32805;53.556;9.944;2023-04-03T11:53:27;103138.00;;;8.70
17142;BMP180;32805;53.556;9.944;2023-04-03T11:56:03;103131.00;;;8.90
17142;BMP180;32805;53.556;9.944;2023-04-03T11:58:33;103125.00;;;9.20
17142;BMP180;32805;53.556;9.944;2023-04-03T12:01:06;103121.00;;;9.50
17142;BMP180;32805;53.556;9.944;2023-04-03T12:06:59;103111.00;;;9.80
17142;BMP180;32805;53.556;9.944;2023-04-03T12:12:34;103104.00;;;9.80
17142;BMP180;32805;53.556;9.944;2023-04-03T12:15:21;103109.00;;;9.80
17142;BMP180;32805;53.556;9.944;2023-04-03T12:17:50;103107.00;;;9.80
17142;BMP180;32805;53.556;9.944;2023-04-03T12:20:53;103111.00;;;9.70
17142;BMP180;32805;53.556;9.944;2023-04-03T12:23:27;103110.00;;;9.40
17142;BMP180;32805;53.556;9.944;2023-04-03T12:28:43;103097.00;;;9.70
17142;BMP180;32805;53.556;9.944;2023-04-03T12:31:13;103096.00;;;9.70
17142;BMP180;32805;53.556;9.944;2023-04-03T12:34:04;103098.00;;;9.80
17142;BMP180;32805;53.556;9.944;2023-04-03T12:36:43;103078.00;;;9.80
17142;BMP180;32805;53.556;9.944;2023-04-03T12:39:39;103094.00;;;9.60
17142;BMP180;32805;53.556;9.944;2023-04-03T12:42:20;103094.00;;;9.50
17142;BMP180;32805;53.556;9.944;2023-04-03T12:44:59;103086.00;;;9.60
17142;BMP180;32805;53.556;9.944;2023-04-03T12:47:31;103083.00;;;9.70
17142;BMP180;32805;53.556;9.944;2023-04-03T12:50:13;103085.00;;;10.00
17142;BMP180;32805;53.556;9.944;2023-04-03T12:52:45;103086.00;;;10.20
17142;BMP180;32805;53.556;9.944;2023-04-03T12:55:15;103076.00;;;10.30
17142;BMP180;32805;53.556;9.944;2023-04-03T12:57:44;103081.00;;;10.10
17142;BMP180;32805;53.556;9.944;2023-04-03T13:00:20;103089.00;;;9.90
17142;BMP180;32805;53.556;9.944;2023-04-03T13:02:48;103083.00;;;9.40
17142;BMP180;32805;53.556;9.944;2023-04-03T13:05:19;103087.00;;;9.00
17142;BMP180;32805;53.556;9.944;2023-04-03T13:07:49;103096.00;;;9.00
17142;BMP180;32805;53.556;9.944;2023-04-03T13:10:18;103076.00;;;8.90
17142;BMP180;32805;53.556;9.944;2023-04-03T13:12:49;103087.00;;;8.80
17142;BMP180;32805;53.556;9.944;2023-04-03T13:15:20;103098.00;;;8.80
17142;BMP180;32805;53.556;9.944;2023-04-03T13:17:49;103088.00;;;8.70
17142;BMP180;32805;53.556;9.944;2023-04-03T13:20:23;103095.00;;;8.70
17142;BMP180;32805;53.556;9.944;2023-04-03T13:22:56;103092.00;;;8.60
17142;BMP180;32805;53.556;9.944;2023-04-03T13:25:26;103080.00;;;8.60
17142;BMP180;32805;53.556;9.944;2023-04-03T13:27:55;103085.00;;;8.50
17142;BMP180;32805;53.556;9.944;2023-04-03T13:30:30;103070.00;;;8.70
17142;BMP180;32805;53.556;9.944;2023-04-03T13:33:01;103074.00;;;8.90
17142;BMP180;32805;53.556;9.944;2023-04-03T13:35:34;103075.00;;;9.10
17142;BMP180;32805;53.556;9.944;2023-04-03T13:38:07;103070.00;;;9.30
17142;BMP180;32805;53.556;9.944;2023-04-03T13:40:48;103064.00;;;9.30
17142;BMP180;32805;53.556;9.944;2023-04-03T13:43:19;103077.00;;;9.20
17142;BMP180;32805;53.556;9.944;2023-04-03T13:46:00;103068.00;;;9.00
17142;BMP180;32805;53.556;9.944;2023-04-03T13:48:37;103078.00;;;8.80
17142;BMP180;32805;53.556;9.944;2023-04-03T13:51:17;103074.00;;;8.60
17142;BMP180;32805;53.556;9.944;2023-04-03T13:53:47;103065.00;;;8.60
17142;BMP180;32805;53.556;9.944;2023-04-03T13:56:21;103071.00;;;8.60
17142;BMP180;32805;53.556;9.944;2023-04-03T13:59:20;103062.00;;;8.60
17142;BMP180;32805;53.556;9.944;2023-04-03T14:01:52;103050.00;;;8.50
17142;BMP180;32805;53.556;9.944;2023-04-03T14:04:23;103065.00;;;8.50
17142;BMP180;32805;53.556;9.944;2023-04-03T14:06:53;103068.00;;;8.60
17142;BMP180;32805;53.556;9.944;2023-04-03T14:09:23;103054.00;;;8.70
17142;BMP180;32805;53.556;9.944;2023-04-03T14:11:54;103045.00;;;8.80
17142;BMP180;32805;53.556;9.944;2023-04-03T14:14:23;103057.00;;;8.80
17142;BMP180;32805;53.556;9.944;2023-04-03T14:16:57;103050.00;;;8.70
17142;BMP180;32805;53.556;9.944;2023-04-03T14:19:28;103050.00;;;8.50
17142;BMP180;32805;53.556;9.944;2023-04-03T14:22:00;103043.00;;;8.40
17142;BMP180;32805;53.556;9.944;2023-04-03T14:24:28;103050.00;;;8.40
17142;BMP180;32805;53.556;9.944;2023-04-03T14:26:56;103041.00;;;8.50
17142;BMP180;32805;53.556;9.944;2023-04-03T14:29:25;103047.00;;;8.50
17142;BMP180;32805;53.556;9.944;2023-04-03T14:31:53;103052.00;;;8.50
17142;BMP180;32805;53.556;9.944;2023-04-03T14:34:33;103047.00;;;8.60
17142;BMP180;32805;53.556;9.944;2023-04-03T14:37:04;103047.00;;;8.60
17142;BMP180;32805;53.556;9.944;2023-04-03T14:39:32;103039.00;;;8.60
17142;BMP180;32805;53.556;9.944;2023-04-03T14:41:59;103047.00;;;8.60
17142;BMP180;32805;53.556;9.944;2023-04-03T14:44:27;103027.00;;;8.60